sensor_id;sensor_type;location;lat;lon;timestamp;pressure;altitude;pressure_sealevel;temperature;humidity
47366;BME280;33105;47.964;7.982;2023-03-25T00:01:18;96288.44;;;9.36;64.51
47366;BME280;33105;47.964;7.982;2023-03-25T00:04:19;96274.97;;;9.19;64.93
47366;BME280;33105;47.964;7.982;2023-03-25T00:07:21;96293.31;;;9.29;64.73
47366;BME280;33105;47.964;7.982;2023-03-25T00:10:22;96279.44;;;9.36;64.70
47366;BME280;33105;47.964;7.982;2023-03-25T00:13:23;96269.06;;;9.33;64.83
47366;BME280;33105;47.964;7.982;2023-03-25T00:16:25;96275.91;;;9.45;64.46
47366;BME280;33105;47.964;7.982;2023-03-25T00:19:27;96291.44;;;9.35;64.88
47366;BME280;33105;47.964;7.982;2023-03-25T00:22:28;96260.09;;;9.42;64.44
47366;BME280;33105;47.964;7.982;2023-03-25T00:25:29;96272.59;;;9.28;65.53
47366;BME280;33105;47.964;7.982;2023-03-25T00:28:33;96256.00;;;9.35;65.07
47366;BME280;33105;47.964;7.982;2023-03-25T00:31:34;96256.28;;;9.38;64.94
47366;BME280;33105;47.964;7.982;2023-03-25T00:34:36;96254.06;;;9.30;65.57
47366;BME280;33105;47.964;7.982;2023-03-25T00:37:48;96229.75;;;9.18;65.04
47366;BME280;33105;47.964;7.982;2023-03-25T00:41:12;96231.66;;;9.23;64.97
47366;BME280;33105;47.964;7.982;2023-03-25T00:44:14;96213.66;;;9.17;63.77
47366;BME280;33105;47.964;7.982;2023-03-25T00:47:17;96216.38;;;9.17;63.10
47366;BME280;33105;47.964;7.982;2023-03-25T00:50:20;96226.75;;;9.15;64.15
47366;BME280;33105;47.964;7.982;2023-03-25T00:53:22;96219.16;;;9.27;63.71
47366;BME280;33105;47.964;7.982;2023-03-25T00:56:23;96222.97;;;9.26;63.36
47366;BME280;33105;47.964;7.982;2023-03-25T00:59:24;96221.00;;;9.16;63.51
47366;BME280;33105;47.964;7.982;2023-03-25T01:02:25;96213.66;;;9.17;63.38
47366;BME280;33105;47.964;7.982;2023-03-25T01:05:26;96240.91;;;9.12;63.57
47366;BME280;33105;47.964;7.982;2023-03-25T01:08:28;96234.38;;;9.13;63.59
47366;BME280;33105;47.964;7.982;2023-03-25T01:11:31;96240.91;;;9.12;63.97
47366;BME280;33105;47.964;7.982;2023-03-25T01:14:35;96245.53;;;9.11;62.67
47366;BME280;33105;47.964;7.982;2023-03-25T01:17:36;96223.47;;;9.13;63.60
47366;BME280;33105;47.964;7.982;2023-03-25T01:20:38;96231.38;;;9.14;63.75
47366;BME280;33105;47.964;7.982;2023-03-25T01:23:40;96243.59;;;9.07;64.11
47366;BME280;33105;47.964;7.982;2023-03-25T01:26:42;96252.38;;;9.14;63.81
47366;BME280;33105;47.964;7.982;2023-03-25T01:29:43;96233.28;;;9.14;63.87
47366;BME280;33105;47.964;7.982;2023-03-25T01:32:45;96249.34;;;9.10;63.68
47366;BME280;33105;47.964;7.982;2023-03-25T01:35:46;96248.75;;;9.03;63.29
47366;BME280;33105;47.964;7.982;2023-03-25T01:38:48;96253.66;;;9.01;63.37
47366;BME280;33105;47.964;7.982;2023-03-25T01:41:50;96256.09;;;9.03;63.74
47366;BME280;33105;47.964;7.982;2023-03-25T01:47:58;96256.63;;;9.00;62.47
47366;BME280;33105;47.964;7.982;2023-03-25T01:51:11;96256.88;;;8.98;61.82
47366;BME280;33105;47.964;7.982;2023-03-25T01:54:14;96250.97;;;9.11;61.83
47366;BME280;33105;47.964;7.982;2023-03-25T01:57:20;96233.03;;;9.15;62.51
47366;BME280;33105;47.964;7.982;2023-03-25T02:00:22;96231.09;;;9.16;65.25
47366;BME280;33105;47.964;7.982;2023-03-25T02:03:23;96238.72;;;9.09;64.62
47366;BME280;33105;47.964;7.982;2023-03-25T02:06:29;96225.47;;;8.80;66.76
47366;BME280;33105;47.964;7.982;2023-03-25T02:09:33;96216.84;;;8.51;68.64
47366;BME280;33105;47.964;7.982;2023-03-25T02:12:34;96242.31;;;8.35;70.51
47366;BME280;33105;47.964;7.982;2023-03-25T02:28:57;96263.72;;;7.46;72.67
47366;BME280;33105;47.964;7.982;2023-03-25T02:32:38;96267.94;;;7.59;73.03
47366;BME280;33105;47.964;7.982;2023-03-25T02:39:21;96287.53;;;7.61;70.62
47366;BME280;33105;47.964;7.982;2023-03-25T02:45:38;96306.63;;;7.66;68.35
47366;BME280;33105;47.964;7.982;2023-03-25T02:49:02;96295.75;;;7.66;66.14
47366;BME280;33105;47.964;7.982;2023-03-25T02:52:23;96314.41;;;7.57;66.72
47366;BME280;33105;47.964;7.982;2023-03-25T02:55:28;96298.53;;;7.49;67.08
47366;BME280;33105;47.964;7.982;2023-03-25T02:58:31;96304.03;;;7.54;66.75
47366;BME280;33105;47.964;7.982;2023-03-25T03:01:34;96288.06;;;7.58;65.47
47366;BME280;33105;47.964;7.982;2023-03-25T03:04:47;96280.72;;;7.58;66.41
47366;BME280;33105;47.964;7.982;2023-03-25T03:07:56;96301.06;;;7.56;66.20
47366;BME280;33105;47.964;7.982;2023-03-25T03:14:23;96316.00;;;7.53;67.10
47366;BME280;33105;47.964;7.982;2023-03-25T03:21:12;96325.66;;;7.44;68.87
47366;BME280;33105;47.964;7.982;2023-03-25T03:24:24;96311.19;;;7.38;68.92
47366;BME280;33105;47.964;7.982;2023-03-25T03:27:48;96321.81;;;7.40;68.77
47366;BME280;33105;47.964;7.982;2023-03-25T03:30:58;96326.34;;;7.34;69.25
47366;BME280;33105;47.964;7.982;2023-03-25T03:34:13;96328.50;;;7.32;69.76
47366;BME280;33105;47.964;7.982;2023-03-25T03:37:21;96323.94;;;7.16;69.66
47366;BME280;33105;47.964;7.982;2023-03-25T03:40:26;96320.44;;;7.21;70.06
47366;BME280;33105;47.964;7.982;2023-03-25T03:49:45;96328.03;;;7.18;68.91
47366;BME280;33105;47.964;7.982;2023-03-25T03:52:52;96332.72;;;7.23;68.86
47366;BME280;33105;47.964;7.982;2023-03-25T03:56:19;96342.84;;;7.28;68.74
47366;BME280;33105;47.964;7.982;2023-03-25T03:59:37;96333.78;;;7.22;67.32
47366;BME280;33105;47.964;7.982;2023-03-25T04:05:52;96330.97;;;7.34;67.30
47366;BME280;33105;47.964;7.982;2023-03-25T04:08:58;96316.66;;;7.43;68.19
47366;BME280;33105;47.964;7.982;2023-03-25T04:12:13;96319.28;;;7.33;68.71
47366;BME280;33105;47.964;7.982;2023-03-25T04:15:15;96323.13;;;7.37;69.11
47366;BME280;33105;47.964;7.982;2023-03-25T04:18:17;96327.00;;;7.41;68.29
47366;BME280;33105;47.964;7.982;2023-03-25T04:21:23;96332.78;;;7.28;69.35
47366;BME280;33105;47.964;7.982;2023-03-25T04:29:21;96322.56;;;7.35;68.98
47366;BME280;33105;47.964;7.982;2023-03-25T04:32:22;96320.66;;;7.58;69.05
47366;BME280;33105;47.964;7.982;2023-03-25T04:35:23;96313.13;;;7.43;68.50
47366;BME280;33105;47.964;7.982;2023-03-25T04:38:25;96324.81;;;7.43;69.35
47366;BME280;33105;47.964;7.982;2023-03-25T04:41:26;96328.69;;;7.47;68.98
47366;BME280;33105;47.964;7.982;2023-03-25T04:44:29;96339.56;;;7.47;69.39
47366;BME280;33105;47.964;7.982;2023-03-25T04:47:33;96339.31;;;7.49;69.80
47366;BME280;33105;47.964;7.982;2023-03-25T04:50:36;96327.19;;;7.35;71.43
47366;BME280;33105;47.964;7.982;2023-03-25T04:53:38;96334.56;;;7.18;72.94
47366;BME280;33105;47.964;7.982;2023-03-25T04:56:39;96348.06;;;7.12;74.29
47366;BME280;33105;47.964;7.982;2023-03-25T04:59:41;96359.69;;;7.08;77.03
47366;BME280;33105;47.964;7.982;2023-03-25T05:07:48;96356.25;;;6.62;78.58
47366;BME280;33105;47.964;7.982;2023-03-25T05:10:49;96349.75;;;6.46;79.49
47366;BME280;33105;47.964;7.982;2023-03-25T05:13:50;96361.16;;;6.32;82.02
47366;BME280;33105;47.964;7.982;2023-03-25T05:16:52;96362.34;;;6.36;81.88
47366;BME280;33105;47.964;7.982;2023-03-25T05:19:53;96366.28;;;6.45;81.01
47366;BME280;33105;47.964;7.982;2023-03-25T05:22:54;96364.06;;;6.42;80.30
47366;BME280;33105;47.964;7.982;2023-03-25T05:30:55;96376.13;;;6.34;83.94
47366;BME280;33105;47.964;7.982;2023-03-25T05:38:35;96371.88;;;6.38;82.95
47366;BME280;33105;47.964;7.982;2023-03-25T05:41:37;96367.09;;;6.45;82.25
47366;BME280;33105;47.964;7.982;2023-03-25T05:44:51;96356.66;;;6.37;82.58
47366;BME280;33105;47.964;7.982;2023-03-25T05:52:58;96342.59;;;6.57;80.75
47366;BME280;33105;47.964;7.982;2023-03-25T05:56:00;96347.88;;;6.64;80.38
47366;BME280;33105;47.964;7.982;2023-03-25T05:59:09;96353.94;;;6.54;81.27
47366;BME280;33105;47.964;7.982;2023-03-25T06:16:53;96333.47;;;6.80;78.75
47366;BME280;33105;47.964;7.982;2023-03-25T06:21:04;96338.81;;;6.92;78.04
47366;BME280;33105;47.964;7.982;2023-03-25T06:24:06;96336.91;;;6.92;77.73
47366;BME280;33105;47.964;7.982;2023-03-25T06:27:12;96349.38;;;7.10;77.59
47366;BME280;33105;47.964;7.982;2023-03-25T06:30:17;96350.97;;;7.06;77.14
47366;BME280;33105;47.964;7.982;2023-03-25T06:33:18;96343.72;;;7.11;76.63
47366;BME280;33105;47.964;7.982;2023-03-25T06:36:28;96347.38;;;7.22;75.94
47366;BME280;33105;47.964;7.982;2023-03-25T06:39:30;96340.03;;;7.23;76.06
47366;BME280;33105;47.964;7.982;2023-03-25T06:42:32;96337.56;;;7.38;75.31
47366;BME280;33105;47.964;7.982;2023-03-25T06:46:06;96335.91;;;7.37;75.62
47366;BME280;33105;47.964;7.982;2023-03-25T06:49:27;96331.91;;;7.44;74.93
47366;BME280;33105;47.964;7.982;2023-03-25T06:52:30;96334.06;;;7.42;74.81
47366;BME280;33105;47.964;7.982;2023-03-25T06:55:31;96328.06;;;7.40;73.81
47366;BME280;33105;47.964;7.982;2023-03-25T06:58:32;96325.97;;;7.47;74.64
47366;BME280;33105;47.964;7.982;2023-03-25T07:01:36;96333.63;;;7.50;74.22
47366;BME280;33105;47.964;7.982;2023-03-25T07:04:37;96322.50;;;7.52;73.04
47366;BME280;33105;47.964;7.982;2023-03-25T07:07:38;96324.41;;;7.51;72.54
47366;BME280;33105;47.964;7.982;2023-03-25T07:10:39;96344.75;;;7.49;73.47
47366;BME280;33105;47.964;7.982;2023-03-25T07:13:41;96327.28;;;7.45;72.24
47366;BME280;33105;47.964;7.982;2023-03-25T07:16:42;96313.94;;;7.43;74.27
47366;BME280;33105;47.964;7.982;2023-03-25T07:19:43;96330.53;;;7.64;73.23
47366;BME280;33105;47.964;7.982;2023-03-25T07:22:44;96325.41;;;7.45;74.28
47366;BME280;33105;47.964;7.982;2023-03-25T07:25:45;96302.84;;;7.67;74.51
47366;BME280;33105;47.964;7.982;2023-03-25T07:28:46;96323.06;;;7.76;74.08
47366;BME280;33105;47.964;7.982;2023-03-25T07:31:47;96315.47;;;7.78;73.75
47366;BME280;33105;47.964;7.982;2023-03-25T07:34:49;96314.38;;;7.79;72.19
47366;BME280;33105;47.964;7.982;2023-03-25T07:37:50;96321.22;;;7.81;73.07
47366;BME280;33105;47.964;7.982;2023-03-25T07:40:51;96307.56;;;7.76;73.75
47366;BME280;33105;47.964;7.982;2023-03-25T07:43:52;96313.00;;;7.76;72.19
47366;BME280;33105;47.964;7.982;2023-03-25T07:46:59;96332.75;;;7.67;73.42
47366;BME280;33105;47.964;7.982;2023-03-25T07:50:00;96338.13;;;7.62;73.91
47366;BME280;33105;47.964;7.982;2023-03-25T07:53:02;96351.50;;;7.46;77.22
47366;BME280;33105;47.964;7.982;2023-03-25T07:56:04;96346.44;;;7.33;78.27
47366;BME280;33105;47.964;7.982;2023-03-25T07:59:05;96327.50;;;7.38;78.02
47366;BME280;33105;47.964;7.982;2023-03-25T08:02:14;96340.44;;;7.31;77.53
47366;BME280;33105;47.964;7.982;2023-03-25T08:05:59;96325.72;;;7.49;77.16
47366;BME280;33105;47.964;7.982;2023-03-25T08:09:01;96328.00;;;7.57;75.58
47366;BME280;33105;47.964;7.982;2023-03-25T08:12:02;96335.31;;;7.78;74.69
47366;BME280;33105;47.964;7.982;2023-03-25T08:15:07;96335.44;;;7.89;74.62
47366;BME280;33105;47.964;7.982;2023-03-25T08:18:15;96311.72;;;7.84;72.40
47366;BME280;33105;47.964;7.982;2023-03-25T08:21:19;96340.81;;;7.83;71.09
47366;BME280;33105;47.964;7.982;2023-03-25T08:24:24;96333.13;;;8.02;70.96
47366;BME280;33105;47.964;7.982;2023-03-25T08:27:26;96363.81;;;7.98;71.87
47366;BME280;33105;47.964;7.982;2023-03-25T08:30:30;96345.38;;;7.78;71.51
47366;BME280;33105;47.964;7.982;2023-03-25T08:33:32;96347.09;;;7.84;72.75
47366;BME280;33105;47.964;7.982;2023-03-25T08:36:34;96353.69;;;8.15;71.70
47366;BME280;33105;47.964;7.982;2023-03-25T08:39:39;96348.53;;;8.18;72.08
47366;BME280;33105;47.964;7.982;2023-03-25T08:42:42;96355.88;;;8.40;71.10
47366;BME280;33105;47.964;7.982;2023-03-25T08:45:43;96348.13;;;8.32;69.07
47366;BME280;33105;47.964;7.982;2023-03-25T08:48:44;96355.41;;;8.26;68.76
47366;BME280;33105;47.964;7.982;2023-03-25T08:51:51;96347.50;;;7.98;69.62
47366;BME280;33105;47.964;7.982;2023-03-25T08:54:53;96352.44;;;8.01;70.21
47366;BME280;33105;47.964;7.982;2023-03-25T08:57:54;96353.09;;;8.35;69.94
47366;BME280;33105;47.964;7.982;2023-03-25T09:00:56;96347.41;;;8.41;68.61
47366;BME280;33105;47.964;7.982;2023-03-25T09:03:57;96333.00;;;8.41;69.20
47366;BME280;33105;47.964;7.982;2023-03-25T09:06:58;96338.72;;;8.44;68.94
47366;BME280;33105;47.964;7.982;2023-03-25T09:09:59;96341.19;;;8.46;69.00
47366;BME280;33105;47.964;7.982;2023-03-25T09:13:00;96352.31;;;8.39;67.77
47366;BME280;33105;47.964;7.982;2023-03-25T09:16:01;96362.78;;;8.52;67.84
47366;BME280;33105;47.964;7.982;2023-03-25T09:19:03;96355.44;;;8.53;68.97
47366;BME280;33105;47.964;7.982;2023-03-25T09:22:04;96343.00;;;8.62;68.93
47366;BME280;33105;47.964;7.982;2023-03-25T09:25:06;96342.25;;;8.72;68.49
47366;BME280;33105;47.964;7.982;2023-03-25T09:28:08;96340.13;;;8.79;66.46
47366;BME280;33105;47.964;7.982;2023-03-25T09:31:09;96351.53;;;8.76;67.45
47366;BME280;33105;47.964;7.982;2023-03-25T09:34:10;96345.00;;;8.77;67.17
47366;BME280;33105;47.964;7.982;2023-03-25T09:37:11;96364.47;;;8.59;65.69
47366;BME280;33105;47.964;7.982;2023-03-25T09:40:15;96358.47;;;8.57;66.51
47366;BME280;33105;47.964;7.982;2023-03-25T09:43:23;96375.47;;;8.74;67.35
47366;BME280;33105;47.964;7.982;2023-03-25T09:46:27;96363.72;;;8.68;65.70
47366;BME280;33105;47.964;7.982;2023-03-25T09:49:50;96385.44;;;8.58;67.28
47366;BME280;33105;47.964;7.982;2023-03-25T09:55:58;96383.59;;;8.64;66.46
47366;BME280;33105;47.964;7.982;2023-03-25T09:59:38;96380.03;;;8.63;66.80
47366;BME280;33105;47.964;7.982;2023-03-25T10:02:37;96396.56;;;8.83;67.16
47366;BME280;33105;47.964;7.982;2023-03-25T10:06:07;96384.63;;;8.95;67.37
47366;BME280;33105;47.964;7.982;2023-03-25T10:10:03;96406.44;;;8.95;67.12
47366;BME280;33105;47.964;7.982;2023-03-25T10:20:17;96436.84;;;9.13;66.22
47366;BME280;33105;47.964;7.982;2023-03-25T10:26:43;96425.03;;;9.03;65.97
47366;BME280;33105;47.964;7.982;2023-03-25T10:29:50;96404.81;;;9.31;65.88
47366;BME280;33105;47.964;7.982;2023-03-25T10:32:58;96424.56;;;9.53;65.50
47366;BME280;33105;47.964;7.982;2023-03-25T10:36:02;96418.63;;;9.61;64.93
47366;BME280;33105;47.964;7.982;2023-03-25T10:39:12;96423.78;;;10.10;65.93
47366;BME280;33105;47.964;7.982;2023-03-25T10:42:26;96419.81;;;10.43;63.27
47366;BME280;33105;47.964;7.982;2023-03-25T10:45:31;96410.56;;;10.54;61.71
47366;BME280;33105;47.964;7.982;2023-03-25T10:48:32;96418.13;;;10.21;62.62
47366;BME280;33105;47.964;7.982;2023-03-25T10:51:34;96411.38;;;10.39;63.65
47366;BME280;33105;47.964;7.982;2023-03-25T10:54:38;96407.06;;;10.79;63.63
47366;BME280;33105;47.964;7.982;2023-03-25T10:57:41;96406.78;;;10.80;61.57
47366;BME280;33105;47.964;7.982;2023-03-25T11:00:43;96391.75;;;10.93;59.96
47366;BME280;33105;47.964;7.982;2023-03-25T11:03:48;96403.16;;;10.44;61.04
47366;BME280;33105;47.964;7.982;2023-03-25T11:06:54;96399.22;;;10.15;62.33
47366;BME280;33105;47.964;7.982;2023-03-25T11:10:14;96400.66;;;10.28;64.73
47366;BME280;33105;47.964;7.982;2023-03-25T11:13:16;96406.59;;;10.09;61.65
47366;BME280;33105;47.964;7.982;2023-03-25T11:16:22;96404.09;;;10.03;65.25
47366;BME280;33105;47.964;7.982;2023-03-25T11:19:27;96400.75;;;9.85;68.11
47366;BME280;33105;47.964;7.982;2023-03-25T11:22:34;96433.09;;;9.62;68.81
47366;BME280;33105;47.964;7.982;2023-03-25T11:25:38;96414.00;;;9.62;72.79
47366;BME280;33105;47.964;7.982;2023-03-25T11:28:44;96414.06;;;9.77;71.48
47366;BME280;33105;47.964;7.982;2023-03-25T11:32:03;96406.91;;;10.23;67.84
47366;BME280;33105;47.964;7.982;2023-03-25T11:35:17;96395.50;;;10.31;65.70
47366;BME280;33105;47.964;7.982;2023-03-25T11:38:22;96400.47;;;10.70;64.04
47366;BME280;33105;47.964;7.982;2023-03-25T11:41:27;96404.03;;;10.75;61.41
47366;BME280;33105;47.964;7.982;2023-03-25T11:44:30;96392.59;;;11.09;65.07
47366;BME280;33105;47.964;7.982;2023-03-25T11:47:37;96385.94;;;11.55;62.31
47366;BME280;33105;47.964;7.982;2023-03-25T11:50:48;96401.84;;;11.33;57.24
47366;BME280;33105;47.964;7.982;2023-03-25T11:54:01;96404.59;;;11.28;58.78
47366;BME280;33105;47.964;7.982;2023-03-25T11:57:05;96412.25;;;11.21;56.42
47366;BME280;33105;47.964;7.982;2023-03-25T12:00:28;96395.31;;;10.99;58.82
47366;BME280;33105;47.964;7.982;2023-03-25T12:03:31;96398.84;;;10.99;60.67
47366;BME280;33105;47.964;7.982;2023-03-25T12:06:33;96390.38;;;11.01;58.83
47366;BME280;33105;47.964;7.982;2023-03-25T12:09:35;96392.00;;;11.32;60.38
47366;BME280;33105;47.964;7.982;2023-03-25T12:12:51;96396.94;;;11.15;59.93
47366;BME280;33105;47.964;7.982;2023-03-25T12:16:13;96402.41;;;10.95;60.39
47366;BME280;33105;47.964;7.982;2023-03-25T12:19:44;96401.59;;;11.35;60.40
47366;BME280;33105;47.964;7.982;2023-03-25T12:26:13;96391.97;;;11.52;59.23
47366;BME280;33105;47.964;7.982;2023-03-25T12:32:42;96391.44;;;11.55;58.47
47366;BME280;33105;47.964;7.982;2023-03-25T12:39:36;96375.09;;;11.10;59.25
47366;BME280;33105;47.964;7.982;2023-03-25T12:46:07;96358.94;;;10.98;57.67
47366;BME280;33105;47.964;7.982;2023-03-25T12:52:37;96368.44;;;11.51;58.28
47366;BME280;33105;47.964;7.982;2023-03-25T13:09:32;96353.69;;;11.52;58.38
47366;BME280;33105;47.964;7.982;2023-03-25T13:12:42;96353.13;;;11.50;57.71
47366;BME280;33105;47.964;7.982;2023-03-25T13:15:52;96367.06;;;11.54;58.17
47366;BME280;33105;47.964;7.982;2023-03-25T13:19:15;96340.59;;;11.19;56.94
47366;BME280;33105;47.964;7.982;2023-03-25T13:22:23;96352.66;;;10.98;57.69
47366;BME280;33105;47.964;7.982;2023-03-25T13:25:50;96364.69;;;10.66;59.46
47366;BME280;33105;47.964;7.982;2023-03-25T13:29:03;96374.38;;;10.11;66.33
47366;BME280;33105;47.964;7.982;2023-03-25T13:32:11;96380.25;;;9.78;69.32
47366;BME280;33105;47.964;7.982;2023-03-25T13:35:19;96380.47;;;9.61;72.67
47366;BME280;33105;47.964;7.982;2023-03-25T13:38:39;96369.03;;;10.37;75.25
47366;BME280;33105;47.964;7.982;2023-03-25T13:41:46;96368.22;;;10.67;67.23
47366;BME280;33105;47.964;7.982;2023-03-25T13:44:53;96357.88;;;10.79;70.00
47366;BME280;33105;47.964;7.982;2023-03-25T13:48:17;96390.31;;;10.40;64.88
47366;BME280;33105;47.964;7.982;2023-03-25T13:51:19;96410.31;;;9.93;68.22
47366;BME280;33105;47.964;7.982;2023-03-25T14:11:20;96416.81;;;10.44;64.21
47366;BME280;33105;47.964;7.982;2023-03-25T14:14:22;96402.88;;;10.46;63.01
47366;BME280;33105;47.964;7.982;2023-03-25T14:17:25;96411.09;;;10.46;63.49
47366;BME280;33105;47.964;7.982;2023-03-25T14:20:32;96400.47;;;10.54;62.31
47366;BME280;33105;47.964;7.982;2023-03-25T14:23:34;96396.91;;;10.59;62.61
47366;BME280;33105;47.964;7.982;2023-03-25T14:26:46;96387.06;;;10.48;61.75
47366;BME280;33105;47.964;7.982;2023-03-25T14:29:54;96390.84;;;10.27;60.28
47366;BME280;33105;47.964;7.982;2023-03-25T14:32:58;96398.78;;;10.38;61.73
47366;BME280;33105;47.964;7.982;2023-03-25T14:36:03;96400.75;;;10.68;61.26
47366;BME280;33105;47.964;7.982;2023-03-25T14:39:10;96396.94;;;10.84;59.24
47366;BME280;33105;47.964;7.982;2023-03-25T14:42:39;96392.56;;;10.78;59.91
47366;BME280;33105;47.964;7.982;2023-03-25T14:46:13;96399.13;;;10.62;58.67
47366;BME280;33105;47.964;7.982;2023-03-25T14:49:20;96397.47;;;10.76;59.30
47366;BME280;33105;47.964;7.982;2023-03-25T14:52:28;96399.38;;;10.76;59.41
47366;BME280;33105;47.964;7.982;2023-03-25T14:55:35;96390.38;;;10.70;59.46
47366;BME280;33105;47.964;7.982;2023-03-25T14:58:41;96380.81;;;11.18;58.95
47366;BME280;33105;47.964;7.982;2023-03-25T15:01:43;96401.88;;;11.13;58.81
47366;BME280;33105;47.964;7.982;2023-03-25T15:04:57;96387.38;;;10.92;59.82
47366;BME280;33105;47.964;7.982;2023-03-25T15:11:16;96374.81;;;10.96;58.88
47366;BME280;33105;47.964;7.982;2023-03-25T15:14:21;96374.00;;;11.06;60.26
47366;BME280;33105;47.964;7.982;2023-03-25T15:17:45;96370.97;;;10.97;60.06
47366;BME280;33105;47.964;7.982;2023-03-25T15:20:46;96373.44;;;11.04;59.65
47366;BME280;33105;47.964;7.982;2023-03-25T15:23:51;96362.50;;;11.04;60.51
47366;BME280;33105;47.964;7.982;2023-03-25T15:26:54;96358.94;;;10.93;60.91
47366;BME280;33105;47.964;7.982;2023-03-25T15:33:59;96354.59;;;10.87;60.88
47366;BME280;33105;47.964;7.982;2023-03-25T15:40:27;96342.56;;;10.98;60.76
47366;BME280;33105;47.964;7.982;2023-03-25T15:43:50;96329.44;;;11.10;60.13
47366;BME280;33105;47.964;7.982;2023-03-25T15:47:05;96326.41;;;10.91;60.35
47366;BME280;33105;47.964;7.982;2023-03-25T15:50:20;96337.91;;;10.68;60.66
47366;BME280;33105;47.964;7.982;2023-03-25T15:53:49;96328.09;;;10.77;61.08
47366;BME280;33105;47.964;7.982;2023-03-25T15:56:59;96341.72;;;10.47;63.84
47366;BME280;33105;47.964;7.982;2023-03-25T16:00:07;96334.06;;;10.49;62.50
47366;BME280;33105;47.964;7.982;2023-03-25T16:03:20;96333.53;;;10.52;62.85
47366;BME280;33105;47.964;7.982;2023-03-25T16:06:23;96334.66;;;10.61;62.93
47366;BME280;33105;47.964;7.982;2023-03-25T16:09:27;96342.28;;;10.64;61.40
47366;BME280;33105;47.964;7.982;2023-03-25T16:12:28;96328.56;;;10.23;61.87
47366;BME280;33105;47.964;7.982;2023-03-25T16:15:32;96339.94;;;9.95;62.57
47366;BME280;33105;47.964;7.982;2023-03-25T16:18:34;96343.19;;;9.87;62.21
47366;BME280;33105;47.964;7.982;2023-03-25T16:21:36;96346.91;;;9.66;63.06
47366;BME280;33105;47.964;7.982;2023-03-25T16:24:37;96343.66;;;9.69;62.47
47366;BME280;33105;47.964;7.982;2023-03-25T16:27:44;96348.28;;;9.68;63.05
47366;BME280;33105;47.964;7.982;2023-03-25T16:30:50;96346.47;;;9.84;63.32
47366;BME280;33105;47.964;7.982;2023-03-25T16:33:57;96351.66;;;9.85;62.85
47366;BME280;33105;47.964;7.982;2023-03-25T16:36:59;96355.47;;;9.95;63.46
47366;BME280;33105;47.964;7.982;2023-03-25T16:40:04;96355.78;;;9.98;63.22
47366;BME280;33105;47.964;7.982;2023-03-25T16:43:19;96352.53;;;10.06;63.20
47366;BME280;33105;47.964;7.982;2023-03-25T16:46:21;96355.25;;;10.01;62.41
47366;BME280;33105;47.964;7.982;2023-03-25T16:49:30;96362.28;;;9.92;62.66
47366;BME280;33105;47.964;7.982;2023-03-25T16:52:32;96357.09;;;9.85;62.95
47366;BME280;33105;47.964;7.982;2023-03-25T16:55:45;96359.03;;;9.95;63.35
47366;BME280;33105;47.964;7.982;2023-03-25T17:02:37;96349.56;;;10.13;61.38
47366;BME280;33105;47.964;7.982;2023-03-25T17:06:24;96347.09;;;10.11;61.14
47366;BME280;33105;47.964;7.982;2023-03-25T17:09:29;96342.16;;;10.08;60.82
47366;BME280;33105;47.964;7.982;2023-03-25T17:12:35;96340.31;;;10.19;61.30
47366;BME280;33105;47.964;7.982;2023-03-25T17:15:36;96329.63;;;10.12;61.63
47366;BME280;33105;47.964;7.982;2023-03-25T17:18:38;96332.91;;;10.14;61.22
47366;BME280;33105;47.964;7.982;2023-03-25T17:22:13;96335.34;;;10.16;61.74
47366;BME280;33105;47.964;7.982;2023-03-25T17:25:28;96333.16;;;10.18;61.52
47366;BME280;33105;47.964;7.982;2023-03-25T17:31:37;96342.22;;;10.23;61.35
47366;BME280;33105;47.964;7.982;2023-03-25T17:34:39;96335.69;;;10.25;62.50
47366;BME280;33105;47.964;7.982;2023-03-25T17:37:49;96347.44;;;10.30;61.36
47366;BME280;33105;47.964;7.982;2023-03-25T17:41:17;96352.53;;;10.16;60.89
47366;BME280;33105;47.964;7.982;2023-03-25T17:44:18;96355.78;;;9.98;61.62
47366;BME280;33105;47.964;7.982;2023-03-25T17:47:20;96358.00;;;10.06;61.35
47366;BME280;33105;47.964;7.982;2023-03-25T17:50:24;96361.25;;;10.03;61.98
47366;BME280;33105;47.964;7.982;2023-03-25T17:53:26;96361.28;;;10.13;61.28
47366;BME280;33105;47.964;7.982;2023-03-25T17:56:27;96353.38;;;10.12;62.11
47366;BME280;33105;47.964;7.982;2023-03-25T17:59:28;96365.63;;;10.04;61.79
47366;BME280;33105;47.964;7.982;2023-03-25T18:02:29;96364.09;;;10.29;59.69
47366;BME280;33105;47.964;7.982;2023-03-25T18:05:31;96372.19;;;10.08;60.78
47366;BME280;33105;47.964;7.982;2023-03-25T18:08:32;96371.06;;;9.99;61.83
47366;BME280;33105;47.964;7.982;2023-03-25T18:11:34;96378.50;;;10.19;63.67
47366;BME280;33105;47.964;7.982;2023-03-25T18:14:35;96388.84;;;10.17;63.16
47366;BME280;33105;47.964;7.982;2023-03-25T18:17:37;96375.44;;;10.00;63.71
47366;BME280;33105;47.964;7.982;2023-03-25T18:20:38;96383.13;;;10.18;62.99
47366;BME280;33105;47.964;7.982;2023-03-25T18:23:40;96377.66;;;10.18;62.38
47366;BME280;33105;47.964;7.982;2023-03-25T18:26:42;96376.50;;;9.99;63.37
47366;BME280;33105;47.964;7.982;2023-03-25T18:29:43;96376.81;;;10.03;61.91
47366;BME280;33105;47.964;7.982;2023-03-25T18:32:44;96385.16;;;9.76;62.73
47366;BME280;33105;47.964;7.982;2023-03-25T18:35:46;96380.00;;;9.84;62.69
47366;BME280;33105;47.964;7.982;2023-03-25T18:38:47;96383.84;;;9.94;61.37
47366;BME280;33105;47.964;7.982;2023-03-25T18:41:49;96374.31;;;9.96;59.95
47366;BME280;33105;47.964;7.982;2023-03-25T18:44:50;96378.09;;;9.90;60.63
47366;BME280;33105;47.964;7.982;2023-03-25T18:47:52;96377.06;;;10.01;61.18
47366;BME280;33105;47.964;7.982;2023-03-25T18:50:55;96378.94;;;9.85;61.49
47366;BME280;33105;47.964;7.982;2023-03-25T18:53:56;96377.53;;;9.78;60.78
47366;BME280;33105;47.964;7.982;2023-03-25T18:56:58;96385.50;;;9.95;60.46
47366;BME280;33105;47.964;7.982;2023-03-25T18:59:59;96384.63;;;9.79;61.42
47366;BME280;33105;47.964;7.982;2023-03-25T19:03:00;96385.66;;;9.68;61.68
47366;BME280;33105;47.964;7.982;2023-03-25T19:06:02;96383.59;;;9.95;60.41
47366;BME280;33105;47.964;7.982;2023-03-25T19:09:04;96382.47;;;9.86;61.13
47366;BME280;33105;47.964;7.982;2023-03-25T19:12:05;96378.63;;;9.82;60.51
47366;BME280;33105;47.964;7.982;2023-03-25T19:15:07;96387.63;;;9.77;60.83